sensor_id;sensor_type;location;lat;lon;timestamp;P1;durP1;ratioP1;P2;durP2;ratioP2
26484;SDS011;18083;50.560;7.262;2023-09-07T03:28:23;11.65;;;7.58;;
26484;SDS011;18083;50.560;7.262;2023-09-07T03:30:48;8.38;;;7.05;;
26484;SDS011;18083;50.560;7.262;2023-09-07T03:33:16;11.33;;;6.90;;
26484;SDS011;18083;50.560;7.262;2023-09-07T03:35:44;11.75;;;8.30;;
26484;SDS011;18083;50.560;7.262;2023-09-07T03:38:16;9.88;;;7.33;;
26484;SDS011;18083;50.560;7.262;2023-09-07T03:40:47;11.48;;;7.78;;
26484;SDS011;18083;50.560;7.262;2023-09-07T03:43:22;9.55;;;7.22;;
26484;SDS011;18083;50.560;7.262;2023-09-07T03:45:49;8.33;;;7.10;;
26484;SDS011;18083;50.560;7.262;2023-09-07T03:48:16;9.28;;;7.92;;
26484;SDS011;18083;50.560;7.262;2023-09-07T03:50:45;11.25;;;7.65;;
26484;SDS011;18083;50.560;7.262;2023-09-07T03:53:15;11.33;;;7.10;;
26484;SDS011;18083;50.560;7.262;2023-09-07T03:55:44;12.18;;;7.62;;
26484;SDS011;18083;50.560;7.262;2023-09-07T03:58:11;11.53;;;6.75;;
26484;SDS011;18083;50.560;7.262;2023-09-07T04:00:43;9.88;;;7.03;;
26484;SDS011;18083;50.560;7.262;2023-09-07T04:03:11;9.60;;;7.20;;
26484;SDS011;18083;50.560;7.262;2023-09-07T04:05:39;9.05;;;6.75;;
26484;SDS011;18083;50.560;7.262;2023-09-07T04:08:07;8.53;;;6.85;;
26484;SDS011;18083;50.560;7.262;2023-09-07T04:10:38;9.60;;;7.17;;
26484;SDS011;18083;50.560;7.262;2023-09-07T04:13:08;15.35;;;7.72;;
26484;SDS011;18083;50.560;7.262;2023-09-07T04:15:44;9.58;;;6.75;;
26484;SDS011;18083;50.560;7.262;2023-09-07T04:18:06;10.03;;;6.85;;
26484;SDS011;18083;50.560;7.262;2023-09-07T04:20:34;11.88;;;8.08;;
26484;SDS011;18083;50.560;7.262;2023-09-07T04:23:01;11.10;;;7.42;;
26484;SDS011;18083;50.560;7.262;2023-09-07T04:25:29;13.00;;;7.97;;
26484;SDS011;18083;50.560;7.262;2023-09-07T04:27:56;9.55;;;6.28;;
26484;SDS011;18083;50.560;7.262;2023-09-07T04:30:24;13.60;;;7.30;;
26484;SDS011;18083;50.560;7.262;2023-09-07T04:33:08;10.93;;;6.80;;
26484;SDS011;18083;50.560;7.262;2023-09-07T04:36:09;10.85;;;7.08;;
26484;SDS011;18083;50.560;7.262;2023-09-07T04:38:42;12.88;;;6.78;;
26484;SDS011;18083;50.560;7.262;2023-09-07T04:41:16;10.15;;;6.78;;
26484;SDS011;18083;50.560;7.262;2023-09-07T04:44:01;14.55;;;7.50;;
26484;SDS011;18083;50.560;7.262;2023-09-07T04:52:32;9.23;;;6.90;;
26484;SDS011;18083;50.560;7.262;2023-09-07T04:58:08;10.53;;;7.33;;
26484;SDS011;18083;50.560;7.262;2023-09-07T05:00:53;9.80;;;6.97;;
26484;SDS011;18083;50.560;7.262;2023-09-07T05:03:50;13.15;;;8.18;;
26484;SDS011;18083;50.560;7.262;2023-09-07T05:06:36;10.72;;;7.42;;
26484;SDS011;18083;50.560;7.262;2023-09-07T05:09:09;15.60;;;7.37;;
26484;SDS011;18083;50.560;7.262;2023-09-07T05:11:45;8.93;;;7.25;;
26484;SDS011;18083;50.560;7.262;2023-09-07T05:14:13;11.10;;;7.62;;
26484;SDS011;18083;50.560;7.262;2023-09-07T05:22:29;11.68;;;7.42;;
26484;SDS011;18083;50.560;7.262;2023-09-07T05:28:02;10.60;;;6.50;;
26484;SDS011;18083;50.560;7.262;2023-09-07T05:30:44;10.93;;;6.65;;
26484;SDS011;18083;50.560;7.262;2023-09-07T05:33:13;16.07;;;7.42;;
26484;SDS011;18083;50.560;7.262;2023-09-07T05:35:41;15.68;;;8.20;;
26484;SDS011;18083;50.560;7.262;2023-09-07T05:38:12;16.05;;;8.18;;
26484;SDS011;18083;50.560;7.262;2023-09-07T05:40:42;10.72;;;7.47;;
26484;SDS011;18083;50.560;7.262;2023-09-07T05:43:12;9.28;;;7.33;;
26484;SDS011;18083;50.560;7.262;2023-09-07T05:45:44;7.42;;;6.67;;
26484;SDS011;18083;50.560;7.262;2023-09-07T05:48:13;10.03;;;6.75;;
26484;SDS011;18083;50.560;7.262;2023-09-07T05:50:46;13.22;;;7.35;;
26484;SDS011;18083;50.560;7.262;2023-09-07T05:53:20;8.58;;;6.75;;
26484;SDS011;18083;50.560;7.262;2023-09-07T05:55:47;11.35;;;6.78;;
26484;SDS011;18083;50.560;7.262;2023-09-07T05:58:27;17.62;;;9.15;;
26484;SDS011;18083;50.560;7.262;2023-09-07T06:00:56;9.60;;;6.67;;
26484;SDS011;18083;50.560;7.262;2023-09-07T06:03:25;10.70;;;6.40;;
26484;SDS011;18083;50.560;7.262;2023-09-07T06:05:54;9.28;;;7.83;;
26484;SDS011;18083;50.560;7.262;2023-09-07T06:08:21;9.50;;;7.90;;
26484;SDS011;18083;50.560;7.262;2023-09-07T06:10:49;13.95;;;7.20;;
26484;SDS011;18083;50.560;7.262;2023-09-07T06:13:16;9.55;;;7.53;;
26484;SDS011;18083;50.560;7.262;2023-09-07T06:15:44;10.13;;;6.85;;
26484;SDS011;18083;50.560;7.262;2023-09-07T06:18:11;10.28;;;7.97;;
26484;SDS011;18083;50.560;7.262;2023-09-07T06:20:39;8.75;;;6.72;;
26484;SDS011;18083;50.560;7.262;2023-09-07T06:23:07;9.35;;;7.08;;
26484;SDS011;18083;50.560;7.262;2023-09-07T06:25:34;9.68;;;6.83;;
26484;SDS011;18083;50.560;7.262;2023-09-07T06:28:01;10.93;;;7.55;;
26484;SDS011;18083;50.560;7.262;2023-09-07T06:30:29;12.82;;;7.33;;
26484;SDS011;18083;50.560;7.262;2023-09-07T06:32:56;11.18;;;7.33;;
26484;SDS011;18083;50.560;7.262;2023-09-07T06:35:24;7.62;;;6.70;;
26484;SDS011;18083;50.560;7.262;2023-09-07T06:37:51;8.08;;;6.35;;
26484;SDS011;18083;50.560;7.262;2023-09-07T06:40:18;8.70;;;7.00;;
26484;SDS011;18083;50.560;7.262;2023-09-07T06:42:46;8.88;;;6.30;;
26484;SDS011;18083;50.560;7.262;2023-09-07T06:45:13;10.20;;;6.78;;
26484;SDS011;18083;50.560;7.262;2023-09-07T06:47:41;12.03;;;7.70;;
26484;SDS011;18083;50.560;7.262;2023-09-07T06:50:08;8.78;;;6.67;;
26484;SDS011;18083;50.560;7.262;2023-09-07T06:52:36;8.25;;;6.83;;
26484;SDS011;18083;50.560;7.262;2023-09-07T06:55:03;9.08;;;7.00;;
26484;SDS011;18083;50.560;7.262;2023-09-07T06:57:31;9.10;;;6.53;;
26484;SDS011;18083;50.560;7.262;2023-09-07T07:00:00;9.95;;;6.97;;
26484;SDS011;18083;50.560;7.262;2023-09-07T07:02:27;8.43;;;6.33;;
26484;SDS011;18083;50.560;7.262;2023-09-07T07:04:54;7.90;;;6.72;;
26484;SDS011;18083;50.560;7.262;2023-09-07T07:07:22;8.35;;;6.42;;
26484;SDS011;18083;50.560;7.262;2023-09-07T07:09:49;7.85;;;6.83;;
26484;SDS011;18083;50.560;7.262;2023-09-07T07:12:18;10.68;;;7.28;;
26484;SDS011;18083;50.560;7.262;2023-09-07T07:14:47;13.62;;;7.08;;
26484;SDS011;18083;50.560;7.262;2023-09-07T07:17:14;9.85;;;7.25;;
26484;SDS011;18083;50.560;7.262;2023-09-07T07:19:42;8.28;;;6.62;;
26484;SDS011;18083;50.560;7.262;2023-09-07T07:22:09;9.03;;;6.87;;
26484;SDS011;18083;50.560;7.262;2023-09-07T07:24:36;7.05;;;5.83;;
26484;SDS011;18083;50.560;7.262;2023-09-07T07:27:04;10.35;;;6.87;;
26484;SDS011;18083;50.560;7.262;2023-09-07T07:29:31;11.83;;;6.70;;
26484;SDS011;18083;50.560;7.262;2023-09-07T07:31:59;7.75;;;5.70;;
26484;SDS011;18083;50.560;7.262;2023-09-07T07:34:26;10.88;;;6.58;;
26484;SDS011;18083;50.560;7.262;2023-09-07T07:36:54;12.03;;;6.28;;
26484;SDS011;18083;50.560;7.262;2023-09-07T07:39:21;11.12;;;6.37;;
26484;SDS011;18083;50.560;7.262;2023-09-07T07:41:48;8.03;;;5.75;;
26484;SDS011;18083;50.560;7.262;2023-09-07T07:44:16;9.75;;;5.75;;
26484;SDS011;18083;50.560;7.262;2023-09-07T07:46:43;11.35;;;6.58;;
26484;SDS011;18083;50.560;7.262;2023-09-07T07:49:11;8.50;;;5.97;;
26484;SDS011;18083;50.560;7.262;2023-09-07T07:51:38;7.80;;;5.03;;
26484;SDS011;18083;50.560;7.262;2023-09-07T07:54:05;5.58;;;5.00;;
26484;SDS011;18083;50.560;7.262;2023-09-07T07:56:33;12.68;;;5.95;;
26484;SDS011;18083;50.560;7.262;2023-09-07T07:59:00;8.45;;;5.30;;
26484;SDS011;18083;50.560;7.262;2023-09-07T08:01:28;8.58;;;5.20;;
26484;SDS011;18083;50.560;7.262;2023-09-07T08:03:55;7.30;;;5.50;;
26484;SDS011;18083;50.560;7.262;2023-09-07T08:06:23;8.75;;;5.15;;
26484;SDS011;18083;50.560;7.262;2023-09-07T08:08:50;6.30;;;4.35;;
26484;SDS011;18083;50.560;7.262;2023-09-07T08:11:18;6.45;;;4.90;;
26484;SDS011;18083;50.560;7.262;2023-09-07T08:13:47;9.83;;;5.05;;
26484;SDS011;18083;50.560;7.262;2023-09-07T08:16:14;5.08;;;4.45;;
26484;SDS011;18083;50.560;7.262;2023-09-07T08:18:42;8.28;;;5.05;;
26484;SDS011;18083;50.560;7.262;2023-09-07T08:21:10;9.63;;;5.00;;
26484;SDS011;18083;50.560;7.262;2023-09-07T08:23:38;5.90;;;4.78;;
26484;SDS011;18083;50.560;7.262;2023-09-07T08:26:05;8.28;;;4.47;;
26484;SDS011;18083;50.560;7.262;2023-09-07T08:28:35;8.33;;;4.22;;
26484;SDS011;18083;50.560;7.262;2023-09-07T08:31:02;4.92;;;4.40;;
26484;SDS011;18083;50.560;7.262;2023-09-07T08:33:31;6.12;;;4.90;;
26484;SDS011;18083;50.560;7.262;2023-09-07T08:36:00;7.15;;;4.70;;
26484;SDS011;18083;50.560;7.262;2023-09-07T08:38:28;5.12;;;4.62;;
26484;SDS011;18083;50.560;7.262;2023-09-07T08:41:00;5.83;;;4.67;;
26484;SDS011;18083;50.560;7.262;2023-09-07T08:43:26;5.17;;;4.22;;
26484;SDS011;18083;50.560;7.262;2023-09-07T08:45:55;8.38;;;4.42;;
26484;SDS011;18083;50.560;7.262;2023-09-07T08:48:28;4.60;;;4.20;;
26484;SDS011;18083;50.560;7.262;2023-09-07T08:50:56;6.90;;;4.42;;
26484;SDS011;18083;50.560;7.262;2023-09-07T08:53:24;7.47;;;3.87;;
26484;SDS011;18083;50.560;7.262;2023-09-07T08:55:51;6.05;;;4.53;;
26484;SDS011;18083;50.560;7.262;2023-09-07T08:58:19;5.25;;;4.67;;
26484;SDS011;18083;50.560;7.262;2023-09-07T09:00:46;5.30;;;4.22;;
26484;SDS011;18083;50.560;7.262;2023-09-07T09:03:17;6.72;;;4.62;;
26484;SDS011;18083;50.560;7.262;2023-09-07T09:05:45;6.80;;;4.62;;
26484;SDS011;18083;50.560;7.262;2023-09-07T09:08:13;8.25;;;4.40;;
26484;SDS011;18083;50.560;7.262;2023-09-07T09:10:42;9.55;;;4.78;;
26484;SDS011;18083;50.560;7.262;2023-09-07T09:13:10;5.85;;;3.85;;
26484;SDS011;18083;50.560;7.262;2023-09-07T09:15:37;5.90;;;4.70;;
26484;SDS011;18083;50.560;7.262;2023-09-07T09:18:09;5.20;;;4.20;;
26484;SDS011;18083;50.560;7.262;2023-09-07T09:20:34;7.75;;;4.45;;
26484;SDS011;18083;50.560;7.262;2023-09-07T09:23:03;5.92;;;4.58;;
26484;SDS011;18083;50.560;7.262;2023-09-07T09:25:31;8.35;;;4.50;;
26484;SDS011;18083;50.560;7.262;2023-09-07T09:27:58;5.47;;;4.00;;
26484;SDS011;18083;50.560;7.262;2023-09-07T09:30:43;4.20;;;3.70;;
26484;SDS011;18083;50.560;7.262;2023-09-07T10:22:26;5.17;;;4.67;;
26484;SDS011;18083;50.560;7.262;2023-09-07T10:31:19;4.95;;;4.47;;
26484;SDS011;18083;50.560;7.262;2023-09-07T10:33:47;6.87;;;4.78;;
26484;SDS011;18083;50.560;7.262;2023-09-07T10:38:50;6.70;;;4.08;;
26484;SDS011;18083;50.560;7.262;2023-09-07T10:41:20;6.60;;;4.62;;
26484;SDS011;18083;50.560;7.262;2023-09-07T10:43:48;5.12;;;3.92;;
26484;SDS011;18083;50.560;7.262;2023-09-07T10:46:23;4.75;;;4.15;;
26484;SDS011;18083;50.560;7.262;2023-09-07T10:48:53;6.58;;;4.62;;
26484;SDS011;18083;50.560;7.262;2023-09-07T10:51:22;4.92;;;4.40;;
26484;SDS011;18083;50.560;7.262;2023-09-07T10:53:50;5.60;;;3.95;;
26484;SDS011;18083;50.560;7.262;2023-09-07T10:56:17;4.17;;;3.77;;
26484;SDS011;18083;50.560;7.262;2023-09-07T10:58:44;11.38;;;4.85;;
26484;SDS011;18083;50.560;7.262;2023-09-07T11:01:12;5.58;;;4.42;;
26484;SDS011;18083;50.560;7.262;2023-09-07T11:03:40;6.65;;;3.92;;
26484;SDS011;18083;50.560;7.262;2023-09-07T11:06:10;4.50;;;3.92;;
26484;SDS011;18083;50.560;7.262;2023-09-07T11:08:39;4.97;;;4.47;;
26484;SDS011;18083;50.560;7.262;2023-09-07T11:11:07;5.25;;;3.62;;
26484;SDS011;18083;50.560;7.262;2023-09-07T11:13:35;6.17;;;4.20;;
26484;SDS011;18083;50.560;7.262;2023-09-07T11:16:02;9.05;;;5.28;;
26484;SDS011;18083;50.560;7.262;2023-09-07T11:18:30;5.37;;;4.37;;
26484;SDS011;18083;50.560;7.262;2023-09-07T11:20:57;7.90;;;4.90;;
26484;SDS011;18083;50.560;7.262;2023-09-07T11:23:26;5.30;;;4.17;;
26484;SDS011;18083;50.560;7.262;2023-09-07T11:25:53;4.55;;;4.00;;
26484;SDS011;18083;50.560;7.262;2023-09-07T11:28:21;4.35;;;3.95;;
26484;SDS011;18083;50.560;7.262;2023-09-07T11:30:53;4.28;;;3.87;;
26484;SDS011;18083;50.560;7.262;2023-09-07T11:33:21;6.08;;;3.87;;
26484;SDS011;18083;50.560;7.262;2023-09-07T11:35:49;5.08;;;3.92;;
26484;SDS011;18083;50.560;7.262;2023-09-07T11:38:16;4.20;;;3.80;;
26484;SDS011;18083;50.560;7.262;2023-09-07T11:40:44;9.75;;;4.22;;
26484;SDS011;18083;50.560;7.262;2023-09-07T11:43:17;4.80;;;4.30;;
26484;SDS011;18083;50.560;7.262;2023-09-07T11:45:41;4.55;;;4.15;;
26484;SDS011;18083;50.560;7.262;2023-09-07T11:48:08;4.55;;;4.08;;
26484;SDS011;18083;50.560;7.262;2023-09-07T11:50:36;6.92;;;4.83;;
26484;SDS011;18083;50.560;7.262;2023-09-07T11:53:05;7.17;;;4.58;;
26484;SDS011;18083;50.560;7.262;2023-09-07T11:55:37;4.87;;;4.47;;
26484;SDS011;18083;50.560;7.262;2023-09-07T11:58:02;7.25;;;4.70;;
26484;SDS011;18083;50.560;7.262;2023-09-07T12:00:30;4.78;;;4.37;;
26484;SDS011;18083;50.560;7.262;2023-09-07T12:02:58;4.75;;;4.08;;
26484;SDS011;18083;50.560;7.262;2023-09-07T12:05:25;7.40;;;4.30;;
26484;SDS011;18083;50.560;7.262;2023-09-07T12:07:53;4.78;;;4.10;;
26484;SDS011;18083;50.560;7.262;2023-09-07T12:10:20;6.58;;;4.45;;
26484;SDS011;18083;50.560;7.262;2023-09-07T12:12:47;5.17;;;4.72;;
26484;SDS011;18083;50.560;7.262;2023-09-07T12:15:15;6.67;;;4.28;;
26484;SDS011;18083;50.560;7.262;2023-09-07T12:17:42;6.17;;;4.05;;
26484;SDS011;18083;50.560;7.262;2023-09-07T12:20:10;5.12;;;4.17;;
26484;SDS011;18083;50.560;7.262;2023-09-07T12:22:39;6.45;;;4.42;;
26484;SDS011;18083;50.560;7.262;2023-09-07T12:25:07;7.17;;;4.05;;
26484;SDS011;18083;50.560;7.262;2023-09-07T12:27:35;7.83;;;3.85;;
26484;SDS011;18083;50.560;7.262;2023-09-07T12:30:03;4.20;;;3.70;;
26484;SDS011;18083;50.560;7.262;2023-09-07T12:32:32;4.92;;;4.35;;
26484;SDS011;18083;50.560;7.262;2023-09-07T12:34:59;4.75;;;4.22;;
26484;SDS011;18083;50.560;7.262;2023-09-07T12:37:27;6.78;;;4.40;;
26484;SDS011;18083;50.560;7.262;2023-09-07T12:39:54;5.95;;;4.17;;
26484;SDS011;18083;50.560;7.262;2023-09-07T12:42:21;4.80;;;4.30;;
26484;SDS011;18083;50.560;7.262;2023-09-07T12:44:50;4.35;;;3.90;;
26484;SDS011;18083;50.560;7.262;2023-09-07T12:47:18;4.80;;;4.33;;
26484;SDS011;18083;50.560;7.262;2023-09-07T12:49:45;4.10;;;3.80;;
26484;SDS011;18083;50.560;7.262;2023-09-07T12:52:14;4.55;;;3.75;;
26484;SDS011;18083;50.560;7.262;2023-09-07T12:54:41;6.85;;;5.08;;
26484;SDS011;18083;50.560;7.262;2023-09-07T12:57:09;4.60;;;4.17;;
26484;SDS011;18083;50.560;7.262;2023-09-07T12:59:36;4.35;;;3.90;;
26484;SDS011;18083;50.560;7.262;2023-09-07T13:02:04;5.08;;;3.72;;
26484;SDS011;18083;50.560;7.262;2023-09-07T13:04:31;6.78;;;4.25;;
26484;SDS011;18083;50.560;7.262;2023-09-07T13:06:59;3.85;;;3.33;;
26484;SDS011;18083;50.560;7.262;2023-09-07T13:09:27;4.47;;;3.92;;
26484;SDS011;18083;50.560;7.262;2023-09-07T13:11:54;5.12;;;3.62;;
26484;SDS011;18083;50.560;7.262;2023-09-07T13:14:22;3.47;;;3.15;;
26484;SDS011;18083;50.560;7.262;2023-09-07T13:16:49;6.10;;;3.90;;
26484;SDS011;18083;50.560;7.262;2023-09-07T13:19:17;4.20;;;3.70;;
26484;SDS011;18083;50.560;7.262;2023-09-07T13:21:44;3.75;;;3.22;;
26484;SDS011;18083;50.560;7.262;2023-09-07T13:24:12;4.35;;;3.02;;
26484;SDS011;18083;50.560;7.262;2023-09-07T13:26:39;5.67;;;3.90;;
26484;SDS011;18083;50.560;7.262;2023-09-07T13:29:07;6.30;;;4.30;;
26484;SDS011;18083;50.560;7.262;2023-09-07T13:31:35;5.28;;;4.12;;
26484;SDS011;18083;50.560;7.262;2023-09-07T13:34:03;5.53;;;3.87;;
26484;SDS011;18083;50.560;7.262;2023-09-07T13:36:31;4.05;;;3.67;;
26484;SDS011;18083;50.560;7.262;2023-09-07T13:38:58;4.28;;;3.22;;
26484;SDS011;18083;50.560;7.262;2023-09-07T13:41:25;4.10;;;3.70;;
26484;SDS011;18083;50.560;7.262;2023-09-07T13:43:53;3.92;;;3.25;;
26484;SDS011;18083;50.560;7.262;2023-09-07T13:46:20;3.85;;;3.52;;
26484;SDS011;18083;50.560;7.262;2023-09-07T13:48:47;3.42;;;3.12;;
26484;SDS011;18083;50.560;7.262;2023-09-07T13:51:15;3.95;;;3.65;;
26484;SDS011;18083;50.560;7.262;2023-09-07T13:53:42;4.47;;;3.92;;
26484;SDS011;18083;50.560;7.262;2023-09-07T13:56:09;8.63;;;3.87;;
26484;SDS011;18083;50.560;7.262;2023-09-07T13:58:37;5.35;;;3.92;;
26484;SDS011;18083;50.560;7.262;2023-09-07T14:01:04;4.12;;;3.75;;
26484;SDS011;18083;50.560;7.262;2023-09-07T14:03:31;4.45;;;3.67;;
26484;SDS011;18083;50.560;7.262;2023-09-07T14:05:59;4.10;;;3.70;;
26484;SDS011;18083;50.560;7.262;2023-09-07T14:08:26;4.95;;;4.15;;
26484;SDS011;18083;50.560;7.262;2023-09-07T14:10:54;5.25;;;3.83;;
26484;SDS011;18083;50.560;7.262;2023-09-07T14:13:21;4.17;;;3.87;;
26484;SDS011;18083;50.560;7.262;2023-09-07T14:15:48;4.03;;;3.62;;
26484;SDS011;18083;50.560;7.262;2023-09-07T14:18:16;4.85;;;4.20;;
26484;SDS011;18083;50.560;7.262;2023-09-07T14:20:43;4.55;;;4.15;;
26484;SDS011;18083;50.560;7.262;2023-09-07T14:23:11;5.40;;;4.05;;
26484;SDS011;18083;50.560;7.262;2023-09-07T14:25:39;5.30;;;4.08;;
26484;SDS011;18083;50.560;7.262;2023-09-07T14:28:08;4.50;;;3.42;;
26484;SDS011;18083;50.560;7.262;2023-09-07T14:30:35;5.37;;;3.85;;
26484;SDS011;18083;50.560;7.262;2023-09-07T14:33:03;4.45;;;3.65;;
26484;SDS011;18083;50.560;7.262;2023-09-07T14:35:31;4.05;;;3.47;;
26484;SDS011;18083;50.560;7.262;2023-09-07T14:37:58;3.92;;;3.62;;
26484;SDS011;18083;50.560;7.262;2023-09-07T14:40:26;6.85;;;3.90;;
26484;SDS011;18083;50.560;7.262;2023-09-07T14:42:54;4.22;;;3.83;;
26484;SDS011;18083;50.560;7.262;2023-09-07T14:45:27;4.15;;;3.75;;
26484;SDS011;18083;50.560;7.262;2023-09-07T14:47:51;5.80;;;3.98;;
26484;SDS011;18083;50.560;7.262;2023-09-07T14:50:19;5.62;;;4.00;;
26484;SDS011;18083;50.560;7.262;2023-09-07T14:52:46;3.70;;;3.33;;
26484;SDS011;18083;50.560;7.262;2023-09-07T14:55:14;3.85;;;3.58;;
26484;SDS011;18083;50.560;7.262;2023-09-07T14:57:41;4.62;;;3.17;;
26484;SDS011;18083;50.560;7.262;2023-09-07T15:00:09;4.22;;;3.85;;
26484;SDS011;18083;50.560;7.262;2023-09-07T15:02:37;4.37;;;3.83;;
26484;SDS011;18083;50.560;7.262;2023-09-07T15:05:05;5.25;;;4.62;;
26484;SDS011;18083;50.560;7.262;2023-09-07T15:07:32;5.47;;;4.30;;
26484;SDS011;18083;50.560;7.262;2023-09-07T15:10:00;4.08;;;3.50;;
26484;SDS011;18083;50.560;7.262;2023-09-07T15:12:27;3.85;;;3.55;;
26484;SDS011;18083;50.560;7.262;2023-09-07T15:14:54;3.92;;;3.62;;
26484;SDS011;18083;50.560;7.262;2023-09-07T15:17:22;4.22;;;3.83;;
26484;SDS011;18083;50.560;7.262;2023-09-07T15:19:49;4.55;;;4.15;;
26484;SDS011;18083;50.560;7.262;2023-09-07T15:22:17;4.25;;;3.85;;
26484;SDS011;18083;50.560;7.262;2023-09-07T15:24:44;6.08;;;4.25;;
26484;SDS011;18083;50.560;7.262;2023-09-07T15:27:12;4.30;;;3.90;;
26484;SDS011;18083;50.560;7.262;2023-09-07T15:29:40;4.03;;;3.70;;
26484;SDS011;18083;50.560;7.262;2023-09-07T15:32:07;4.03;;;3.72;;
26484;SDS011;18083;50.560;7.262;2023-09-07T15:34:35;3.87;;;3.52;;
26484;SDS011;18083;50.560;7.262;2023-09-07T15:37:05;5.67;;;3.42;;
26484;SDS011;18083;50.560;7.262;2023-09-07T15:39:32;3.72;;;3.42;;
26484;SDS011;18083;50.560;7.262;2023-09-07T15:42:00;3.75;;;3.22;;
26484;SDS011;18083;50.560;7.262;2023-09-07T15:44:27;4.87;;;3.35;;
26484;SDS011;18083;50.560;7.262;2023-09-07T15:46:55;4.22;;;3.83;;
26484;SDS011;18083;50.560;7.262;2023-09-07T15:49:22;3.33;;;3.10;;
26484;SDS011;18083;50.560;7.262;2023-09-07T15:51:50;3.30;;;3.10;;
26484;SDS011;18083;50.560;7.262;2023-09-07T15:54:17;3.98;;;3.50;;
26484;SDS011;18083;50.560;7.262;2023-09-07T15:56:44;4.37;;;3.50;;
26484;SDS011;18083;50.560;7.262;2023-09-07T15:59:12;5.22;;;3.35;;
26484;SDS011;18083;50.560;7.262;2023-09-07T16:01:39;4.35;;;3.00;;
26484;SDS011;18083;50.560;7.262;2023-09-07T16:04:07;8.33;;;3.40;;
26484;SDS011;18083;50.560;7.262;2023-09-07T16:06:34;4.10;;;3.67;;
26484;SDS011;18083;50.560;7.262;2023-09-07T16:09:01;4.12;;;3.27;;
26484;SDS011;18083;50.560;7.262;2023-09-07T16:11:29;4.00;;;3.52;;
26484;SDS011;18083;50.560;7.262;2023-09-07T16:13:56;3.80;;;3.50;;
26484;SDS011;18083;50.560;7.262;2023-09-07T16:16:23;3.42;;;3.02;;
26484;SDS011;18083;50.560;7.262;2023-09-07T16:18:51;4.08;;;3.67;;
26484;SDS011;18083;50.560;7.262;2023-09-07T16:21:18;3.60;;;3.30;;
26484;SDS011;18083;50.560;7.262;2023-09-07T16:23:46;4.10;;;3.60;;
26484;SDS011;18083;50.560;7.262;2023-09-07T16:26:15;3.83;;;3.52;;
26484;SDS011;18083;50.560;7.262;2023-09-07T16:28:42;6.10;;;3.85;;
26484;SDS011;18083;50.560;7.262;2023-09-07T16:31:10;4.97;;;3.50;;
26484;SDS011;18083;50.560;7.262;2023-09-07T16:33:37;3.95;;;3.60;;
26484;SDS011;18083;50.560;7.262;2023-09-07T16:36:04;9.40;;;4.00;;
26484;SDS011;18083;50.560;7.262;2023-09-07T16:38:32;4.50;;;3.60;;
26484;SDS011;18083;50.560;7.262;2023-09-07T16:41:03;4.20;;;3.15;;
26484;SDS011;18083;50.560;7.262;2023-09-07T16:43:31;4.28;;;3.87;;
26484;SDS011;18083;50.560;7.262;2023-09-07T16:45:58;4.42;;;4.03;;
26484;SDS011;18083;50.560;7.262;2023-09-07T16:48:26;8.13;;;4.72;;
26484;SDS011;18083;50.560;7.262;2023-09-07T16:50:53;3.67;;;3.15;;
26484;SDS011;18083;50.560;7.262;2023-09-07T16:53:21;3.85;;;3.40;;
26484;SDS011;18083;50.560;7.262;2023-09-07T16:55:49;4.25;;;3.83;;
26484;SDS011;18083;50.560;7.262;2023-09-07T16:58:16;4.35;;;3.52;;
26484;SDS011;18083;50.560;7.262;2023-09-07T17:00:44;9.10;;;3.90;;
26484;SDS011;18083;50.560;7.262;2023-09-07T17:03:11;5.72;;;4.20;;
26484;SDS011;18083;50.560;7.262;2023-09-07T17:05:39;4.28;;;3.87;;
26484;SDS011;18083;50.560;7.262;2023-09-07T17:08:06;4.28;;;3.83;;
26484;SDS011;18083;50.560;7.262;2023-09-07T17:10:35;4.08;;;3.77;;
26484;SDS011;18083;50.560;7.262;2023-09-07T17:13:03;6.90;;;3.35;;
26484;SDS011;18083;50.560;7.262;2023-09-07T17:15:31;4.47;;;3.62;;
26484;SDS011;18083;50.560;7.262;2023-09-07T17:17:59;4.17;;;3.70;;
26484;SDS011;18083;50.560;7.262;2023-09-07T17:20:26;3.95;;;3.55;;
26484;SDS011;18083;50.560;7.262;2023-09-07T17:22:53;4.12;;;3.50;;
26484;SDS011;18083;50.560;7.262;2023-09-07T17:25:21;3.62;;;3.33;;
26484;SDS011;18083;50.560;7.262;2023-09-07T17:27:48;3.70;;;3.40;;
26484;SDS011;18083;50.560;7.262;2023-09-07T17:30:15;5.50;;;3.52;;
26484;SDS011;18083;50.560;7.262;2023-09-07T17:32:43;4.85;;;3.92;;
26484;SDS011;18083;50.560;7.262;2023-09-07T17:35:11;5.90;;;3.80;;
26484;SDS011;18083;50.560;7.262;2023-09-07T17:37:38;6.12;;;3.87;;
26484;SDS011;18083;50.560;7.262;2023-09-07T17:40:06;3.80;;;3.40;;
26484;SDS011;18083;50.560;7.262;2023-09-07T17:42:34;4.75;;;3.87;;
26484;SDS011;18083;50.560;7.262;2023-09-07T17:45:01;4.92;;;3.58;;
26484;SDS011;18083;50.560;7.262;2023-09-07T17:47:28;7.25;;;3.98;;
26484;SDS011;18083;50.560;7.262;2023-09-07T17:49:56;5.40;;;3.90;;
26484;SDS011;18083;50.560;7.262;2023-09-07T17:52:23;6.17;;;4.25;;
26484;SDS011;18083;50.560;7.262;2023-09-07T17:54:51;4.95;;;4.28;;
26484;SDS011;18083;50.560;7.262;2023-09-07T17:57:19;5.62;;;3.92;;
26484;SDS011;18083;50.560;7.262;2023-09-07T17:59:46;4.72;;;3.25;;
26484;SDS011;18083;50.560;7.262;2023-09-07T18:02:23;5.60;;;4.20;;
26484;SDS011;18083;50.560;7.262;2023-09-07T18:04:53;4.45;;;4.05;;
26484;SDS011;18083;50.560;7.262;2023-09-07T18:07:21;5.35;;;4.35;;
26484;SDS011;18083;50.560;7.262;2023-09-07T18:09:48;6.28;;;4.50;;
26484;SDS011;18083;50.560;7.262;2023-09-07T18:12:16;6.45;;;3.70;;
26484;SDS011;18083;50.560;7.262;2023-09-07T18:14:44;7.22;;;4.10;;
26484;SDS011;18083;50.560;7.262;2023-09-07T18:17:13;6.92;;;4.92;;
26484;SDS011;18083;50.560;7.262;2023-09-07T18:19:40;7.97;;;4.03;;
26484;SDS011;18083;50.560;7.262;2023-09-07T18:22:08;5.33;;;3.87;;
26484;SDS011;18083;50.560;7.262;2023-09-07T18:24:36;4.80;;;4.30;;
26484;SDS011;18083;50.560;7.262;2023-09-07T18:27:03;5.55;;;3.92;;
26484;SDS011;18083;50.560;7.262;2023-09-07T18:29:31;5.53;;;4.45;;
26484;SDS011;18083;50.560;7.262;2023-09-07T18:32:00;5.95;;;4.80;;
26484;SDS011;18083;50.560;7.262;2023-09-07T18:34:28;5.62;;;4.90;;
26484;SDS011;18083;50.560;7.262;2023-09-07T18:36:55;10.72;;;4.97;;
26484;SDS011;18083;50.560;7.262;2023-09-07T18:39:22;8.50;;;5.40;;
26484;SDS011;18083;50.560;7.262;2023-09-07T18:41:50;6.58;;;4.03;;
26484;SDS011;18083;50.560;7.262;2023-09-07T18:44:18;4.97;;;4.50;;
26484;SDS011;18083;50.560;7.262;2023-09-07T18:46:45;6.42;;;4.40;;
26484;SDS011;18083;50.560;7.262;2023-09-07T18:49:13;7.70;;;4.03;;
26484;SDS011;18083;50.560;7.262;2023-09-07T18:51:40;7.95;;;4.20;;
26484;SDS011;18083;50.560;7.262;2023-09-07T18:54:08;5.12;;;4.50;;
26484;SDS011;18083;50.560;7.262;2023-09-07T18:56:35;6.70;;;4.25;;
26484;SDS011;18083;50.560;7.262;2023-09-07T18:59:03;5.30;;;4.47;;
26484;SDS011;18083;50.560;7.262;2023-09-07T19:01:31;6.15;;;5.62;;
26484;SDS011;18083;50.560;7.262;2023-09-07T19:04:12;5.50;;;4.53;;
26484;SDS011;18083;50.560;7.262;2023-09-07T19:06:36;7.53;;;4.75;;
26484;SDS011;18083;50.560;7.262;2023-09-07T19:09:07;5.35;;;4.60;;
26484;SDS011;18083;50.560;7.262;2023-09-07T19:11:36;5.22;;;4.50;;
26484;SDS011;18083;50.560;7.262;2023-09-07T19:14:03;4.90;;;4.10;;
26484;SDS011;18083;50.560;7.262;2023-09-07T19:16:31;5.70;;;4.72;;
26484;SDS011;18083;50.560;7.262;2023-09-07T19:18:58;6.28;;;4.65;;
26484;SDS011;18083;50.560;7.262;2023-09-07T19:21:26;7.12;;;5.03;;
26484;SDS011;18083;50.560;7.262;2023-09-07T19:23:55;6.03;;;4.83;;
26484;SDS011;18083;50.560;7.262;2023-09-07T19:26:26;10.70;;;5.53;;
26484;SDS011;18083;50.560;7.262;2023-09-07T19:28:54;6.08;;;4.80;;
26484;SDS011;18083;50.560;7.262;2023-09-07T19:31:21;6.28;;;5.67;;
26484;SDS011;18083;50.560;7.262;2023-09-07T19:33:49;7.12;;;5.28;;
26484;SDS011;18083;50.560;7.262;2023-09-07T19:36:17;7.67;;;5.08;;